To NAV CANADA Home Page Login to a new session Search on AWWS site Disclaimer Vers la page française équivalente Tips FAQ What's new on the site To the Forecasts and Observations / NOTAM section To "File a Flight Plan" website Publications and other links Update of the User's profile FIC Telephone Numbers My Weather Data Folder Route Weather Data Regional Weather Data Local Weather Data To the Forecasts and Observations / NOTAM section
Request Generated 03/18/2019 at 20:17:19 UTC . Weather information available at that time is displayed.


Go to a specific product

Save this request

NOTAM

NOTAM


SIGMET
To the Product Selector

SIGMETS GFACN32

GFACN32 - No SIGMET bulletins in effect



AIRMET
To the Product Selector

AIRMETS GFACN32

GFACN32 - No AIRMET bulletins in effect



PIREP
To the Product Selector

FIR_WINNIPEG (WG)

UACN10 CYWG 181926
WG
UA /OV CYBR /TM 1921 /FLDURD /TP BE90 /IC LGT CLR 044-060


METAR/TAF
To the Product Selector

REGINA INTL/SK    

METAR CYQR 182000Z 33018KT 15SM FEW080 03/M01 A3007 RMK AC1 AC TR SLP213=
METAR CYQR 181900Z 32016KT 15SM FEW080 SCT250 03/M01 A3006 RMK AC2CI1 SLP211=
METAR CYQR 181800Z 31013KT 15SM FEW120 FEW250 03/M01 A3007 RMK AC1CI1 AC TR CI TR SLP213=

TAF AMD CYQR 182006Z 1820/1918 33018KT P6SM FEW080
FM190000 30012KT P6SM SKC
BECMG 1904/1906 22010KT
RMK NXT FCST BY 190000Z=

MOOSE JAW/AIR VICE MARSHAL C.M. MCEWEN/SK    

METAR CYMJ 182000Z 32017KT 10SM FEW140 04/01 A3011 RMK AC1 SLP220=
METAR CYMJ 181900Z 31017G22KT 10SM FEW140 04/00 A3010 RMK AC1 SLP217=
METAR CYMJ 181800Z CCA 31017KT 12SM FEW160 04/00 A3010 RMK AC1 SLP217=
METAR CYMJ 181800Z 31017KT 15SM FEW160 04/00 A3010 RMK AC1 SLP217=

TAF CYMJ 181730Z 1818/1906 29012KT P6SM FEW180
FM182100 33015KT P6SM SCT040
FM190100 33010KT P6SM FEW250
BECMG 1903/1905 26008KT
RMK NXT FCST BY 190000Z=


RADAR PCPN RATE
To the Product Selector
Pacific Canada      Western Canada     

SATELLITE VISIBLE
To the Product Selector
West Canada      

SATELLITE INFRARED
To the Product Selector
West Canada     

GRAPHICAL FA CLOUDS & WEATHER FORECASTS
To the Product Selector
Graphical FA gfacn32      

GRAPHICAL FA ICING, TURBULENCE & FREEZING LEVEL FORECASTS
To the Product Selector
Graphical FA gfacn32      

FDTEXT Low Level FD. Temperatures are not forecast for the 3,000-foot level.
To the Product Selector
STN YQR - REGINA. SASK for use 3000 6000 9000 12000 18000
FDCN01 CWAO FCST BASED ON 181200 DATA VALID 181800 17-21 3524-01 3433-09 3428-15 3332-29
FDCN02 CWAO FCST BASED ON 181200 DATA VALID 190000 21-06 0118-03 0119-09 0220-15 0347-26
FDCN03 CWAO FCST BASED ON 181200 DATA VALID 191200 06-17 3219+00 3521-04 3627-08 0339-20



Your time UTC time
Weather data provided by Environment Canada and NAV CANADA